Wilmington, North Carolina
Current Conditions -  °F | °C
As of 7:53 AM on Sunday 23 Nov 2014 (Local Time) from KILM Reporting Station
Light Rain Light Rain  
Wind Chill: 57°   Ceiling: 8000
Heat Index: 57°   Visibility: 10mi
Dew Point: 55°   Wind: 6mph
Humidity: 93%   Direction: 110°ESE
Pressure: 30.24"   Gusts: NA
Location:  34.24°N, 77.94°W
Report Text: KILM 231253Z 11005KT 10SM -RA OVC080 14/13 A3024 RMK AO2 SLP241 P0001 T01390128
Loading
Personal Weather Stations






























Interactive Weather Map New forecast layout! Learn more

10-Day Weather Forecast

Advertisements
Track Severe Weather on mobile